Terminal Aerodrome Forecast
Issued by NWS

Home | Current Version | Previous Version | Text Only | Print | Product List | Glossary On
Versions: 1 2 3 4 5 6 7 8 9 10 11 12 13 14 15 16 17 18 19 20 21 22 23 24
000
FTUS43 KDMX 230537
TAFOTM
TAF
KOTM 230537Z 2306/2406 15011KT P6SM SCT050 BKN180
     FM231000 17007KT 5SM -SHRA BR SCT015 OVC035
     FM231600 23008KT P6SM SCT008 BKN025
     FM232000 24006KT P6SM SKC=

USA.gov is the U.S. government's official web portal to all federal, state and local government web resources and services.